sensor_id;sensor_type;location;lat;lon;timestamp;P1;durP1;ratioP1;P2;durP2;ratioP2
11034;SDS011;5571;48.110;-1.706;2023-08-31T00:02:09;9.23;;;3.63;;
11034;SDS011;5571;48.110;-1.706;2023-08-31T00:04:35;13.80;;;3.75;;
11034;SDS011;5571;48.110;-1.706;2023-08-31T00:07:00;8.65;;;3.20;;
11034;SDS011;5571;48.110;-1.706;2023-08-31T00:09:26;15.52;;;3.63;;
11034;SDS011;5571;48.110;-1.706;2023-08-31T00:11:52;11.20;;;3.20;;
11034;SDS011;5571;48.110;-1.706;2023-08-31T00:14:17;13.02;;;3.53;;
11034;SDS011;5571;48.110;-1.706;2023-08-31T00:16:43;8.98;;;3.85;;
11034;SDS011;5571;48.110;-1.706;2023-08-31T00:19:12;13.07;;;3.80;;
11034;SDS011;5571;48.110;-1.706;2023-08-31T00:21:39;9.85;;;3.20;;
11034;SDS011;5571;48.110;-1.706;2023-08-31T00:24:05;11.68;;;2.90;;
11034;SDS011;5571;48.110;-1.706;2023-08-31T00:26:31;12.57;;;3.80;;
11034;SDS011;5571;48.110;-1.706;2023-08-31T00:28:58;12.77;;;3.60;;
11034;SDS011;5571;48.110;-1.706;2023-08-31T00:31:24;11.13;;;3.10;;
11034;SDS011;5571;48.110;-1.706;2023-08-31T00:33:49;12.63;;;3.47;;
11034;SDS011;5571;48.110;-1.706;2023-08-31T00:36:15;10.23;;;3.20;;
11034;SDS011;5571;48.110;-1.706;2023-08-31T00:38:43;8.40;;;3.57;;
11034;SDS011;5571;48.110;-1.706;2023-08-31T00:41:08;17.17;;;3.83;;
11034;SDS011;5571;48.110;-1.706;2023-08-31T00:43:34;13.77;;;3.80;;
11034;SDS011;5571;48.110;-1.706;2023-08-31T00:45:59;11.33;;;3.33;;
11034;SDS011;5571;48.110;-1.706;2023-08-31T00:48:25;11.57;;;3.13;;
11034;SDS011;5571;48.110;-1.706;2023-08-31T00:50:51;11.17;;;3.60;;
11034;SDS011;5571;48.110;-1.706;2023-08-31T00:53:17;12.33;;;3.70;;
11034;SDS011;5571;48.110;-1.706;2023-08-31T00:55:46;11.43;;;3.60;;
11034;SDS011;5571;48.110;-1.706;2023-08-31T00:58:12;8.90;;;3.20;;
11034;SDS011;5571;48.110;-1.706;2023-08-31T01:06:36;11.43;;;3.20;;
11034;SDS011;5571;48.110;-1.706;2023-08-31T01:09:20;7.67;;;3.17;;
11034;SDS011;5571;48.110;-1.706;2023-08-31T01:12:11;13.23;;;4.30;;
11034;SDS011;5571;48.110;-1.706;2023-08-31T01:15:04;10.03;;;3.17;;
11034;SDS011;5571;48.110;-1.706;2023-08-31T01:17:37;9.10;;;3.33;;
11034;SDS011;5571;48.110;-1.706;2023-08-31T01:20:10;10.60;;;3.10;;
11034;SDS011;5571;48.110;-1.706;2023-08-31T01:25:22;14.93;;;3.57;;
11034;SDS011;5571;48.110;-1.706;2023-08-31T01:27:49;15.17;;;3.20;;
11034;SDS011;5571;48.110;-1.706;2023-08-31T01:30:16;6.63;;;2.57;;
11034;SDS011;5571;48.110;-1.706;2023-08-31T01:32:45;12.03;;;3.60;;
11034;SDS011;5571;48.110;-1.706;2023-08-31T01:35:13;7.23;;;2.87;;
11034;SDS011;5571;48.110;-1.706;2023-08-31T01:37:49;14.80;;;3.77;;
11034;SDS011;5571;48.110;-1.706;2023-08-31T01:43:05;9.17;;;3.30;;
11034;SDS011;5571;48.110;-1.706;2023-08-31T01:45:33;10.30;;;3.20;;
11034;SDS011;5571;48.110;-1.706;2023-08-31T01:48:00;16.03;;;3.53;;
11034;SDS011;5571;48.110;-1.706;2023-08-31T01:50:26;11.53;;;3.00;;
11034;SDS011;5571;48.110;-1.706;2023-08-31T01:52:51;11.43;;;3.50;;
11034;SDS011;5571;48.110;-1.706;2023-08-31T01:55:20;6.73;;;2.83;;
11034;SDS011;5571;48.110;-1.706;2023-08-31T01:57:47;8.80;;;2.90;;
11034;SDS011;5571;48.110;-1.706;2023-08-31T02:00:13;9.90;;;3.27;;
11034;SDS011;5571;48.110;-1.706;2023-08-31T02:02:39;10.83;;;3.47;;
11034;SDS011;5571;48.110;-1.706;2023-08-31T02:05:05;11.60;;;3.07;;
11034;SDS011;5571;48.110;-1.706;2023-08-31T02:07:31;12.23;;;3.33;;
11034;SDS011;5571;48.110;-1.706;2023-08-31T02:09:57;12.27;;;3.50;;
11034;SDS011;5571;48.110;-1.706;2023-08-31T02:12:22;12.30;;;3.47;;
11034;SDS011;5571;48.110;-1.706;2023-08-31T02:14:48;9.13;;;3.13;;
11034;SDS011;5571;48.110;-1.706;2023-08-31T02:17:14;14.63;;;3.30;;
11034;SDS011;5571;48.110;-1.706;2023-08-31T02:19:40;12.73;;;3.47;;
11034;SDS011;5571;48.110;-1.706;2023-08-31T02:22:05;12.30;;;3.43;;
11034;SDS011;5571;48.110;-1.706;2023-08-31T02:24:31;11.07;;;3.03;;
11034;SDS011;5571;48.110;-1.706;2023-08-31T02:26:56;11.80;;;3.47;;
11034;SDS011;5571;48.110;-1.706;2023-08-31T02:29:22;10.50;;;3.23;;
11034;SDS011;5571;48.110;-1.706;2023-08-31T02:31:48;14.00;;;2.97;;
11034;SDS011;5571;48.110;-1.706;2023-08-31T02:34:13;12.33;;;3.10;;
11034;SDS011;5571;48.110;-1.706;2023-08-31T02:36:39;13.77;;;3.87;;
11034;SDS011;5571;48.110;-1.706;2023-08-31T02:39:04;14.53;;;3.60;;
11034;SDS011;5571;48.110;-1.706;2023-08-31T02:41:31;11.97;;;3.27;;
11034;SDS011;5571;48.110;-1.706;2023-08-31T02:43:57;10.63;;;2.90;;
11034;SDS011;5571;48.110;-1.706;2023-08-31T02:46:23;14.33;;;3.73;;
11034;SDS011;5571;48.110;-1.706;2023-08-31T02:48:49;15.90;;;3.70;;
11034;SDS011;5571;48.110;-1.706;2023-08-31T02:51:15;8.67;;;3.10;;
11034;SDS011;5571;48.110;-1.706;2023-08-31T02:53:40;11.67;;;3.73;;
11034;SDS011;5571;48.110;-1.706;2023-08-31T02:56:06;12.20;;;3.30;;
11034;SDS011;5571;48.110;-1.706;2023-08-31T02:58:32;8.57;;;2.77;;
11034;SDS011;5571;48.110;-1.706;2023-08-31T03:03:37;9.70;;;3.40;;
11034;SDS011;5571;48.110;-1.706;2023-08-31T03:06:07;12.80;;;3.33;;
11034;SDS011;5571;48.110;-1.706;2023-08-31T03:08:33;16.47;;;3.67;;
11034;SDS011;5571;48.110;-1.706;2023-08-31T03:11:00;8.80;;;3.30;;
11034;SDS011;5571;48.110;-1.706;2023-08-31T03:13:26;11.93;;;3.40;;
11034;SDS011;5571;48.110;-1.706;2023-08-31T03:15:52;9.37;;;3.30;;
11034;SDS011;5571;48.110;-1.706;2023-08-31T03:18:18;10.40;;;2.90;;
11034;SDS011;5571;48.110;-1.706;2023-08-31T03:20:43;13.07;;;3.10;;
11034;SDS011;5571;48.110;-1.706;2023-08-31T03:23:09;8.27;;;2.93;;
11034;SDS011;5571;48.110;-1.706;2023-08-31T03:25:36;14.07;;;3.00;;
11034;SDS011;5571;48.110;-1.706;2023-08-31T03:28:01;11.80;;;3.20;;
11034;SDS011;5571;48.110;-1.706;2023-08-31T03:30:27;12.33;;;3.10;;
11034;SDS011;5571;48.110;-1.706;2023-08-31T03:32:53;13.83;;;3.83;;
11034;SDS011;5571;48.110;-1.706;2023-08-31T03:35:19;11.47;;;3.20;;
11034;SDS011;5571;48.110;-1.706;2023-08-31T03:37:49;7.80;;;2.90;;
11034;SDS011;5571;48.110;-1.706;2023-08-31T03:40:14;11.33;;;3.50;;
11034;SDS011;5571;48.110;-1.706;2023-08-31T03:42:40;16.53;;;3.87;;
11034;SDS011;5571;48.110;-1.706;2023-08-31T03:45:05;9.77;;;3.17;;
11034;SDS011;5571;48.110;-1.706;2023-08-31T03:47:31;11.17;;;3.37;;
11034;SDS011;5571;48.110;-1.706;2023-08-31T03:49:57;14.57;;;4.03;;
11034;SDS011;5571;48.110;-1.706;2023-08-31T03:52:23;11.23;;;3.53;;
11034;SDS011;5571;48.110;-1.706;2023-08-31T03:54:49;9.57;;;3.20;;
11034;SDS011;5571;48.110;-1.706;2023-08-31T03:57:16;16.90;;;4.07;;
11034;SDS011;5571;48.110;-1.706;2023-08-31T03:59:41;14.63;;;3.57;;
11034;SDS011;5571;48.110;-1.706;2023-08-31T04:02:07;12.87;;;3.83;;
11034;SDS011;5571;48.110;-1.706;2023-08-31T04:04:33;11.53;;;3.70;;
11034;SDS011;5571;48.110;-1.706;2023-08-31T04:06:59;11.47;;;2.90;;
11034;SDS011;5571;48.110;-1.706;2023-08-31T04:09:25;9.90;;;3.13;;
11034;SDS011;5571;48.110;-1.706;2023-08-31T04:11:51;13.40;;;3.80;;
11034;SDS011;5571;48.110;-1.706;2023-08-31T04:14:16;14.90;;;3.37;;
11034;SDS011;5571;48.110;-1.706;2023-08-31T04:16:43;13.20;;;3.70;;
11034;SDS011;5571;48.110;-1.706;2023-08-31T04:19:09;10.10;;;3.10;;
11034;SDS011;5571;48.110;-1.706;2023-08-31T04:21:35;13.73;;;3.10;;
11034;SDS011;5571;48.110;-1.706;2023-08-31T04:24:02;14.07;;;3.53;;
11034;SDS011;5571;48.110;-1.706;2023-08-31T04:26:28;13.27;;;3.23;;
11034;SDS011;5571;48.110;-1.706;2023-08-31T04:28:54;15.83;;;3.00;;
11034;SDS011;5571;48.110;-1.706;2023-08-31T04:31:20;10.40;;;3.33;;
11034;SDS011;5571;48.110;-1.706;2023-08-31T04:33:45;12.70;;;3.27;;
11034;SDS011;5571;48.110;-1.706;2023-08-31T04:36:12;13.10;;;3.53;;
11034;SDS011;5571;48.110;-1.706;2023-08-31T04:38:37;19.43;;;3.57;;
11034;SDS011;5571;48.110;-1.706;2023-08-31T04:41:03;9.33;;;3.27;;
11034;SDS011;5571;48.110;-1.706;2023-08-31T04:43:29;13.37;;;3.73;;
11034;SDS011;5571;48.110;-1.706;2023-08-31T04:45:55;13.50;;;3.03;;
11034;SDS011;5571;48.110;-1.706;2023-08-31T04:48:21;10.27;;;3.47;;
11034;SDS011;5571;48.110;-1.706;2023-08-31T04:50:47;10.43;;;3.53;;
11034;SDS011;5571;48.110;-1.706;2023-08-31T04:53:12;12.03;;;3.80;;
11034;SDS011;5571;48.110;-1.706;2023-08-31T04:55:38;10.93;;;3.40;;
11034;SDS011;5571;48.110;-1.706;2023-08-31T04:58:04;11.27;;;3.37;;
11034;SDS011;5571;48.110;-1.706;2023-08-31T05:00:30;12.10;;;3.30;;
11034;SDS011;5571;48.110;-1.706;2023-08-31T05:02:56;8.27;;;3.03;;
11034;SDS011;5571;48.110;-1.706;2023-08-31T05:05:22;16.20;;;3.50;;
11034;SDS011;5571;48.110;-1.706;2023-08-31T05:07:48;12.53;;;3.40;;
11034;SDS011;5571;48.110;-1.706;2023-08-31T05:10:13;13.60;;;3.70;;
11034;SDS011;5571;48.110;-1.706;2023-08-31T05:12:39;12.70;;;3.63;;
11034;SDS011;5571;48.110;-1.706;2023-08-31T05:15:05;11.10;;;3.73;;
11034;SDS011;5571;48.110;-1.706;2023-08-31T05:17:31;12.67;;;3.60;;
11034;SDS011;5571;48.110;-1.706;2023-08-31T05:19:57;18.57;;;4.00;;
11034;SDS011;5571;48.110;-1.706;2023-08-31T05:22:23;11.63;;;3.50;;
11034;SDS011;5571;48.110;-1.706;2023-08-31T05:24:48;11.43;;;3.87;;
11034;SDS011;5571;48.110;-1.706;2023-08-31T05:27:14;14.00;;;3.37;;
11034;SDS011;5571;48.110;-1.706;2023-08-31T05:29:39;9.53;;;3.20;;
11034;SDS011;5571;48.110;-1.706;2023-08-31T05:32:05;14.37;;;3.43;;
11034;SDS011;5571;48.110;-1.706;2023-08-31T05:34:31;10.50;;;3.60;;
11034;SDS011;5571;48.110;-1.706;2023-08-31T05:36:59;14.13;;;3.60;;
11034;SDS011;5571;48.110;-1.706;2023-08-31T05:39:25;15.67;;;3.87;;
11034;SDS011;5571;48.110;-1.706;2023-08-31T05:41:51;14.63;;;3.90;;
11034;SDS011;5571;48.110;-1.706;2023-08-31T05:44:16;11.87;;;3.50;;
11034;SDS011;5571;48.110;-1.706;2023-08-31T05:46:42;13.93;;;3.70;;
11034;SDS011;5571;48.110;-1.706;2023-08-31T05:49:07;11.33;;;3.63;;
11034;SDS011;5571;48.110;-1.706;2023-08-31T05:51:33;13.60;;;3.40;;
11034;SDS011;5571;48.110;-1.706;2023-08-31T05:53:59;8.10;;;3.30;;
11034;SDS011;5571;48.110;-1.706;2023-08-31T05:56:25;11.27;;;3.60;;
11034;SDS011;5571;48.110;-1.706;2023-08-31T05:58:50;16.27;;;3.57;;
11034;SDS011;5571;48.110;-1.706;2023-08-31T06:01:20;9.17;;;3.00;;
11034;SDS011;5571;48.110;-1.706;2023-08-31T06:03:47;12.90;;;3.67;;
11034;SDS011;5571;48.110;-1.706;2023-08-31T06:06:13;13.40;;;3.63;;
11034;SDS011;5571;48.110;-1.706;2023-08-31T06:08:39;12.93;;;3.73;;
11034;SDS011;5571;48.110;-1.706;2023-08-31T06:11:04;10.47;;;3.60;;
11034;SDS011;5571;48.110;-1.706;2023-08-31T06:13:31;13.20;;;4.07;;
11034;SDS011;5571;48.110;-1.706;2023-08-31T06:15:56;10.73;;;3.27;;
11034;SDS011;5571;48.110;-1.706;2023-08-31T06:18:23;9.93;;;3.60;;
11034;SDS011;5571;48.110;-1.706;2023-08-31T06:20:49;12.03;;;3.77;;
11034;SDS011;5571;48.110;-1.706;2023-08-31T06:23:14;10.33;;;3.50;;
11034;SDS011;5571;48.110;-1.706;2023-08-31T06:25:40;12.33;;;3.97;;
11034;SDS011;5571;48.110;-1.706;2023-08-31T06:28:06;12.90;;;3.50;;
11034;SDS011;5571;48.110;-1.706;2023-08-31T06:30:33;12.60;;;3.90;;
11034;SDS011;5571;48.110;-1.706;2023-08-31T06:33:00;13.13;;;4.17;;
11034;SDS011;5571;48.110;-1.706;2023-08-31T06:35:25;16.50;;;4.57;;
11034;SDS011;5571;48.110;-1.706;2023-08-31T06:37:51;14.27;;;4.00;;
11034;SDS011;5571;48.110;-1.706;2023-08-31T06:40:17;15.17;;;4.40;;
11034;SDS011;5571;48.110;-1.706;2023-08-31T06:42:42;10.53;;;4.03;;
11034;SDS011;5571;48.110;-1.706;2023-08-31T06:45:08;16.13;;;5.23;;
11034;SDS011;5571;48.110;-1.706;2023-08-31T06:47:34;10.13;;;4.00;;
11034;SDS011;5571;48.110;-1.706;2023-08-31T06:50:00;14.20;;;4.20;;
11034;SDS011;5571;48.110;-1.706;2023-08-31T06:52:26;13.57;;;4.43;;
11034;SDS011;5571;48.110;-1.706;2023-08-31T06:54:52;13.00;;;4.07;;
11034;SDS011;5571;48.110;-1.706;2023-08-31T06:57:25;12.60;;;4.97;;
11034;SDS011;5571;48.110;-1.706;2023-08-31T06:59:51;10.97;;;4.67;;
11034;SDS011;5571;48.110;-1.706;2023-08-31T07:02:17;9.20;;;4.40;;
11034;SDS011;5571;48.110;-1.706;2023-08-31T07:04:44;12.93;;;5.00;;
11034;SDS011;5571;48.110;-1.706;2023-08-31T07:07:10;8.20;;;4.10;;
11034;SDS011;5571;48.110;-1.706;2023-08-31T07:09:38;8.93;;;4.50;;
11034;SDS011;5571;48.110;-1.706;2023-08-31T07:12:04;12.37;;;4.10;;
11034;SDS011;5571;48.110;-1.706;2023-08-31T07:14:29;7.47;;;4.57;;
11034;SDS011;5571;48.110;-1.706;2023-08-31T07:16:55;8.77;;;4.23;;
11034;SDS011;5571;48.110;-1.706;2023-08-31T07:19:21;8.13;;;4.57;;
11034;SDS011;5571;48.110;-1.706;2023-08-31T07:21:46;9.03;;;4.63;;
11034;SDS011;5571;48.110;-1.706;2023-08-31T07:24:13;13.33;;;4.10;;
11034;SDS011;5571;48.110;-1.706;2023-08-31T07:26:38;6.27;;;3.83;;
11034;SDS011;5571;48.110;-1.706;2023-08-31T07:29:04;8.37;;;3.83;;
11034;SDS011;5571;48.110;-1.706;2023-08-31T07:31:30;8.17;;;3.93;;
11034;SDS011;5571;48.110;-1.706;2023-08-31T07:33:56;6.30;;;3.67;;
11034;SDS011;5571;48.110;-1.706;2023-08-31T07:36:22;6.60;;;3.60;;
11034;SDS011;5571;48.110;-1.706;2023-08-31T07:38:49;4.60;;;3.03;;
11034;SDS011;5571;48.110;-1.706;2023-08-31T07:41:14;7.43;;;3.37;;
11034;SDS011;5571;48.110;-1.706;2023-08-31T07:43:40;5.07;;;3.17;;
11034;SDS011;5571;48.110;-1.706;2023-08-31T07:46:06;5.57;;;3.60;;
11034;SDS011;5571;48.110;-1.706;2023-08-31T07:48:31;5.53;;;3.37;;
11034;SDS011;5571;48.110;-1.706;2023-08-31T07:50:57;5.13;;;3.70;;
11034;SDS011;5571;48.110;-1.706;2023-08-31T07:53:22;6.77;;;4.40;;
11034;SDS011;5571;48.110;-1.706;2023-08-31T07:55:52;5.63;;;3.97;;
11034;SDS011;5571;48.110;-1.706;2023-08-31T07:58:22;7.00;;;4.30;;
11034;SDS011;5571;48.110;-1.706;2023-08-31T08:00:48;7.63;;;4.37;;
11034;SDS011;5571;48.110;-1.706;2023-08-31T08:03:14;5.07;;;4.13;;
11034;SDS011;5571;48.110;-1.706;2023-08-31T08:05:40;6.73;;;4.93;;
11034;SDS011;5571;48.110;-1.706;2023-08-31T08:08:06;6.53;;;4.70;;
11034;SDS011;5571;48.110;-1.706;2023-08-31T08:10:32;5.30;;;4.40;;
11034;SDS011;5571;48.110;-1.706;2023-08-31T08:12:57;5.40;;;4.60;;
11034;SDS011;5571;48.110;-1.706;2023-08-31T08:15:23;5.40;;;4.90;;
11034;SDS011;5571;48.110;-1.706;2023-08-31T08:17:49;5.33;;;4.60;;
11034;SDS011;5571;48.110;-1.706;2023-08-31T08:20:15;6.03;;;4.90;;
11034;SDS011;5571;48.110;-1.706;2023-08-31T08:22:41;5.33;;;4.73;;
11034;SDS011;5571;48.110;-1.706;2023-08-31T08:25:06;8.20;;;4.80;;
11034;SDS011;5571;48.110;-1.706;2023-08-31T08:27:32;5.23;;;4.73;;
11034;SDS011;5571;48.110;-1.706;2023-08-31T08:29:58;5.50;;;5.00;;
11034;SDS011;5571;48.110;-1.706;2023-08-31T08:32:24;4.63;;;4.13;;
11034;SDS011;5571;48.110;-1.706;2023-08-31T08:34:50;5.40;;;4.43;;
11034;SDS011;5571;48.110;-1.706;2023-08-31T08:37:16;5.57;;;4.03;;
11034;SDS011;5571;48.110;-1.706;2023-08-31T08:39:42;6.57;;;4.25;;
11034;SDS011;5571;48.110;-1.706;2023-08-31T08:42:08;4.75;;;4.32;;
11034;SDS011;5571;48.110;-1.706;2023-08-31T08:44:35;4.05;;;3.72;;
11034;SDS011;5571;48.110;-1.706;2023-08-31T08:47:02;6.57;;;4.00;;
11034;SDS011;5571;48.110;-1.706;2023-08-31T08:49:29;4.03;;;3.72;;
11034;SDS011;5571;48.110;-1.706;2023-08-31T08:51:56;3.63;;;3.30;;
11034;SDS011;5571;48.110;-1.706;2023-08-31T08:54:22;3.47;;;3.28;;
11034;SDS011;5571;48.110;-1.706;2023-08-31T08:56:48;4.10;;;3.67;;
11034;SDS011;5571;48.110;-1.706;2023-08-31T08:59:14;4.07;;;3.42;;
11034;SDS011;5571;48.110;-1.706;2023-08-31T09:01:40;5.38;;;3.38;;
11034;SDS011;5571;48.110;-1.706;2023-08-31T09:04:06;3.67;;;3.38;;
11034;SDS011;5571;48.110;-1.706;2023-08-31T09:06:33;3.75;;;3.45;;
11034;SDS011;5571;48.110;-1.706;2023-08-31T09:08:59;5.18;;;3.58;;
11034;SDS011;5571;48.110;-1.706;2023-08-31T09:11:25;4.00;;;3.70;;
11034;SDS011;5571;48.110;-1.706;2023-08-31T09:13:51;4.00;;;3.72;;
11034;SDS011;5571;48.110;-1.706;2023-08-31T09:18:54;5.30;;;3.65;;
11034;SDS011;5571;48.110;-1.706;2023-08-31T09:21:41;4.38;;;3.90;;
11034;SDS011;5571;48.110;-1.706;2023-08-31T09:24:06;4.55;;;3.85;;
11034;SDS011;5571;48.110;-1.706;2023-08-31T09:26:39;5.63;;;4.07;;
11034;SDS011;5571;48.110;-1.706;2023-08-31T09:29:08;5.68;;;4.03;;
11034;SDS011;5571;48.110;-1.706;2023-08-31T09:31:34;4.05;;;3.72;;
11034;SDS011;5571;48.110;-1.706;2023-08-31T09:34:00;4.13;;;3.70;;
11034;SDS011;5571;48.110;-1.706;2023-08-31T09:36:26;4.18;;;3.88;;
11034;SDS011;5571;48.110;-1.706;2023-08-31T09:38:56;5.30;;;3.90;;
11034;SDS011;5571;48.110;-1.706;2023-08-31T09:41:23;3.95;;;3.65;;
11034;SDS011;5571;48.110;-1.706;2023-08-31T09:43:49;4.40;;;4.10;;
11034;SDS011;5571;48.110;-1.706;2023-08-31T09:46:14;4.72;;;3.90;;
11034;SDS011;5571;48.110;-1.706;2023-08-31T09:48:41;6.68;;;4.20;;
11034;SDS011;5571;48.110;-1.706;2023-08-31T09:51:07;4.85;;;4.45;;
11034;SDS011;5571;48.110;-1.706;2023-08-31T09:53:35;4.47;;;4.07;;
11034;SDS011;5571;48.110;-1.706;2023-08-31T09:56:02;4.47;;;4.07;;
11034;SDS011;5571;48.110;-1.706;2023-08-31T09:58:30;4.13;;;3.75;;
11034;SDS011;5571;48.110;-1.706;2023-08-31T10:00:57;3.88;;;3.58;;
11034;SDS011;5571;48.110;-1.706;2023-08-31T10:03:23;4.03;;;3.72;;
11034;SDS011;5571;48.110;-1.706;2023-08-31T10:05:52;5.25;;;3.60;;
11034;SDS011;5571;48.110;-1.706;2023-08-31T10:08:18;4.57;;;3.25;;
11034;SDS011;5571;48.110;-1.706;2023-08-31T10:10:44;3.88;;;3.58;;
11034;SDS011;5571;48.110;-1.706;2023-08-31T10:13:10;5.13;;;3.38;;
11034;SDS011;5571;48.110;-1.706;2023-08-31T10:15:36;3.30;;;3.00;;
11034;SDS011;5571;48.110;-1.706;2023-08-31T10:18:03;3.22;;;2.92;;
11034;SDS011;5571;48.110;-1.706;2023-08-31T10:20:30;3.50;;;3.20;;
11034;SDS011;5571;48.110;-1.706;2023-08-31T10:23:06;2.97;;;2.67;;
11034;SDS011;5571;48.110;-1.706;2023-08-31T10:28:22;2.45;;;2.25;;
11034;SDS011;5571;48.110;-1.706;2023-08-31T10:33:40;2.20;;;2.00;;
11034;SDS011;5571;48.110;-1.706;2023-08-31T10:36:14;2.30;;;2.20;;
11034;SDS011;5571;48.110;-1.706;2023-08-31T10:38:41;1.98;;;1.88;;
11034;SDS011;5571;48.110;-1.706;2023-08-31T10:46:24;1.70;;;1.60;;
11034;SDS011;5571;48.110;-1.706;2023-08-31T10:48:55;1.77;;;1.63;;
11034;SDS011;5571;48.110;-1.706;2023-08-31T10:51:22;1.90;;;1.80;;
11034;SDS011;5571;48.110;-1.706;2023-08-31T10:53:49;1.70;;;1.60;;
11034;SDS011;5571;48.110;-1.706;2023-08-31T10:56:20;1.40;;;1.30;;
11034;SDS011;5571;48.110;-1.706;2023-08-31T10:58:55;1.20;;;1.13;;
11034;SDS011;5571;48.110;-1.706;2023-08-31T11:04:23;1.67;;;1.45;;
11034;SDS011;5571;48.110;-1.706;2023-08-31T11:09:36;2.25;;;1.38;;
11034;SDS011;5571;48.110;-1.706;2023-08-31T11:12:03;1.65;;;1.40;;
11034;SDS011;5571;48.110;-1.706;2023-08-31T11:14:29;1.80;;;1.50;;
11034;SDS011;5571;48.110;-1.706;2023-08-31T11:16:54;1.52;;;1.30;;
11034;SDS011;5571;48.110;-1.706;2023-08-31T11:19:20;1.50;;;1.30;;
11034;SDS011;5571;48.110;-1.706;2023-08-31T11:21:46;2.00;;;0.95;;
11034;SDS011;5571;48.110;-1.706;2023-08-31T11:24:12;1.05;;;1.05;;
11034;SDS011;5571;48.110;-1.706;2023-08-31T11:26:37;0.90;;;0.90;;
11034;SDS011;5571;48.110;-1.706;2023-08-31T11:29:06;1.35;;;1.05;;
11034;SDS011;5571;48.110;-1.706;2023-08-31T11:31:33;2.42;;;1.20;;
11034;SDS011;5571;48.110;-1.706;2023-08-31T11:34:06;2.17;;;1.38;;
11034;SDS011;5571;48.110;-1.706;2023-08-31T11:36:32;1.63;;;1.02;;
11034;SDS011;5571;48.110;-1.706;2023-08-31T11:38:58;1.90;;;1.80;;
11034;SDS011;5571;48.110;-1.706;2023-08-31T11:41:25;1.05;;;1.05;;
11034;SDS011;5571;48.110;-1.706;2023-08-31T11:43:57;1.63;;;1.33;;
11034;SDS011;5571;48.110;-1.706;2023-08-31T11:46:23;1.33;;;1.20;;
11034;SDS011;5571;48.110;-1.706;2023-08-31T11:48:49;1.95;;;1.10;;
11034;SDS011;5571;48.110;-1.706;2023-08-31T11:51:15;1.30;;;1.20;;
11034;SDS011;5571;48.110;-1.706;2023-08-31T11:53:41;1.17;;;1.08;;
11034;SDS011;5571;48.110;-1.706;2023-08-31T11:56:07;1.25;;;1.13;;
11034;SDS011;5571;48.110;-1.706;2023-08-31T11:58:33;2.22;;;1.83;;
11034;SDS011;5571;48.110;-1.706;2023-08-31T12:01:05;1.27;;;1.00;;
11034;SDS011;5571;48.110;-1.706;2023-08-31T12:03:41;1.13;;;1.13;;
11034;SDS011;5571;48.110;-1.706;2023-08-31T12:06:11;2.53;;;1.15;;
11034;SDS011;5571;48.110;-1.706;2023-08-31T12:08:41;2.90;;;1.08;;
11034;SDS011;5571;48.110;-1.706;2023-08-31T12:11:06;1.38;;;1.08;;
11034;SDS011;5571;48.110;-1.706;2023-08-31T12:13:32;2.00;;;1.40;;
11034;SDS011;5571;48.110;-1.706;2023-08-31T12:15:58;1.15;;;1.13;;
11034;SDS011;5571;48.110;-1.706;2023-08-31T12:18:23;2.80;;;1.35;;
11034;SDS011;5571;48.110;-1.706;2023-08-31T12:20:50;3.88;;;1.20;;
11034;SDS011;5571;48.110;-1.706;2023-08-31T12:23:16;3.17;;;0.90;;
11034;SDS011;5571;48.110;-1.706;2023-08-31T12:25:48;1.77;;;1.25;;
11034;SDS011;5571;48.110;-1.706;2023-08-31T12:28:14;1.95;;;1.10;;
11034;SDS011;5571;48.110;-1.706;2023-08-31T12:30:42;3.63;;;1.13;;
11034;SDS011;5571;48.110;-1.706;2023-08-31T12:33:11;3.15;;;1.15;;
11034;SDS011;5571;48.110;-1.706;2023-08-31T12:35:36;3.80;;;1.20;;
11034;SDS011;5571;48.110;-1.706;2023-08-31T12:38:03;3.75;;;1.08;;
11034;SDS011;5571;48.110;-1.706;2023-08-31T12:40:29;3.15;;;1.33;;
11034;SDS011;5571;48.110;-1.706;2023-08-31T12:42:54;1.48;;;1.23;;
11034;SDS011;5571;48.110;-1.706;2023-08-31T12:45:20;1.67;;;1.50;;
11034;SDS011;5571;48.110;-1.706;2023-08-31T12:47:45;5.50;;;1.50;;
11034;SDS011;5571;48.110;-1.706;2023-08-31T12:50:12;2.38;;;1.20;;
11034;SDS011;5571;48.110;-1.706;2023-08-31T12:52:38;6.60;;;1.52;;
11034;SDS011;5571;48.110;-1.706;2023-08-31T12:55:10;2.28;;;1.50;;
11034;SDS011;5571;48.110;-1.706;2023-08-31T12:57:36;2.65;;;1.45;;
11034;SDS011;5571;48.110;-1.706;2023-08-31T13:00:02;3.28;;;1.65;;
11034;SDS011;5571;48.110;-1.706;2023-08-31T13:02:34;2.20;;;1.38;;
11034;SDS011;5571;48.110;-1.706;2023-08-31T13:04:59;1.60;;;1.33;;
11034;SDS011;5571;48.110;-1.706;2023-08-31T13:07:25;3.50;;;1.30;;
11034;SDS011;5571;48.110;-1.706;2023-08-31T13:09:50;2.55;;;1.58;;
11034;SDS011;5571;48.110;-1.706;2023-08-31T13:12:16;2.63;;;1.48;;
11034;SDS011;5571;48.110;-1.706;2023-08-31T13:14:43;4.22;;;1.52;;
11034;SDS011;5571;48.110;-1.706;2023-08-31T13:17:09;3.65;;;1.33;;
11034;SDS011;5571;48.110;-1.706;2023-08-31T13:19:34;1.65;;;1.15;;
11034;SDS011;5571;48.110;-1.706;2023-08-31T13:22:00;2.72;;;1.40;;
11034;SDS011;5571;48.110;-1.706;2023-08-31T13:24:26;2.97;;;1.50;;
11034;SDS011;5571;48.110;-1.706;2023-08-31T13:26:51;2.85;;;1.60;;
11034;SDS011;5571;48.110;-1.706;2023-08-31T13:29:17;4.13;;;1.63;;
11034;SDS011;5571;48.110;-1.706;2023-08-31T13:31:42;4.32;;;1.85;;
11034;SDS011;5571;48.110;-1.706;2023-08-31T13:34:08;2.13;;;1.50;;
11034;SDS011;5571;48.110;-1.706;2023-08-31T13:36:35;2.60;;;1.40;;
11034;SDS011;5571;48.110;-1.706;2023-08-31T13:39:01;1.88;;;1.08;;
11034;SDS011;5571;48.110;-1.706;2023-08-31T13:41:28;2.85;;;1.27;;
11034;SDS011;5571;48.110;-1.706;2023-08-31T13:43:55;2.40;;;1.10;;
11034;SDS011;5571;48.110;-1.706;2023-08-31T13:46:20;2.17;;;1.33;;
11034;SDS011;5571;48.110;-1.706;2023-08-31T13:48:46;3.22;;;1.17;;
11034;SDS011;5571;48.110;-1.706;2023-08-31T13:51:13;3.47;;;1.08;;
11034;SDS011;5571;48.110;-1.706;2023-08-31T13:53:38;2.25;;;0.90;;
11034;SDS011;5571;48.110;-1.706;2023-08-31T13:56:04;2.42;;;0.82;;
11034;SDS011;5571;48.110;-1.706;2023-08-31T13:58:30;2.50;;;1.10;;
11034;SDS011;5571;48.110;-1.706;2023-08-31T14:00:55;3.38;;;0.95;;
11034;SDS011;5571;48.110;-1.706;2023-08-31T14:03:21;1.27;;;0.98;;
11034;SDS011;5571;48.110;-1.706;2023-08-31T14:05:48;1.10;;;0.90;;
11034;SDS011;5571;48.110;-1.706;2023-08-31T14:08:14;2.70;;;0.98;;
11034;SDS011;5571;48.110;-1.706;2023-08-31T14:10:40;2.22;;;1.05;;
11034;SDS011;5571;48.110;-1.706;2023-08-31T14:13:06;3.35;;;1.45;;
11034;SDS011;5571;48.110;-1.706;2023-08-31T14:15:32;3.85;;;1.20;;
11034;SDS011;5571;48.110;-1.706;2023-08-31T14:17:58;1.70;;;1.25;;
11034;SDS011;5571;48.110;-1.706;2023-08-31T14:20:23;1.35;;;0.95;;
11034;SDS011;5571;48.110;-1.706;2023-08-31T14:22:49;6.35;;;1.30;;
11034;SDS011;5571;48.110;-1.706;2023-08-31T14:25:15;2.58;;;0.75;;
11034;SDS011;5571;48.110;-1.706;2023-08-31T14:27:41;2.15;;;1.30;;
11034;SDS011;5571;48.110;-1.706;2023-08-31T14:30:07;1.48;;;0.90;;
11034;SDS011;5571;48.110;-1.706;2023-08-31T14:32:34;2.45;;;1.05;;
11034;SDS011;5571;48.110;-1.706;2023-08-31T14:34:59;1.95;;;1.10;;
11034;SDS011;5571;48.110;-1.706;2023-08-31T14:37:25;4.80;;;1.00;;
11034;SDS011;5571;48.110;-1.706;2023-08-31T14:39:51;2.30;;;0.93;;
11034;SDS011;5571;48.110;-1.706;2023-08-31T14:42:17;2.10;;;0.95;;
11034;SDS011;5571;48.110;-1.706;2023-08-31T14:44:45;1.42;;;0.88;;
11034;SDS011;5571;48.110;-1.706;2023-08-31T14:47:12;0.90;;;0.90;;
11034;SDS011;5571;48.110;-1.706;2023-08-31T14:49:38;1.52;;;0.98;;
11034;SDS011;5571;48.110;-1.706;2023-08-31T14:52:05;5.97;;;0.80;;
11034;SDS011;5571;48.110;-1.706;2023-08-31T14:54:31;3.03;;;0.90;;
11034;SDS011;5571;48.110;-1.706;2023-08-31T14:56:58;1.08;;;0.70;;
11034;SDS011;5571;48.110;-1.706;2023-08-31T14:59:24;4.43;;;0.77;;
11034;SDS011;5571;48.110;-1.706;2023-08-31T15:01:49;3.30;;;1.20;;
11034;SDS011;5571;48.110;-1.706;2023-08-31T15:04:16;1.27;;;1.08;;
11034;SDS011;5571;48.110;-1.706;2023-08-31T15:06:42;3.20;;;1.17;;
11034;SDS011;5571;48.110;-1.706;2023-08-31T15:09:08;2.03;;;1.20;;
11034;SDS011;5571;48.110;-1.706;2023-08-31T15:11:33;5.15;;;1.20;;
11034;SDS011;5571;48.110;-1.706;2023-08-31T15:13:59;2.50;;;1.10;;